createdAt,value
2018-07-09T00:00:27.149Z,17.7
2018-07-09T00:05:27.203Z,17.7
2018-07-09T00:10:27.017Z,17.7
2018-07-09T00:15:27.163Z,17.7
2018-07-09T00:20:27.013Z,17.7
2018-07-09T00:25:27.026Z,17.7
2018-07-09T00:30:39.662Z,17.7
2018-07-09T00:35:39.267Z,17.6
2018-07-09T00:40:39.385Z,17.6
2018-07-09T00:45:39.258Z,17.5
2018-07-09T00:50:39.489Z,17.5
2018-07-09T00:55:39.422Z,17.4
2018-07-09T01:00:39.287Z,17.4
2018-07-09T01:05:39.642Z,17.4
2018-07-09T01:10:39.372Z,17.4
2018-07-09T01:15:52.255Z,17.1
2018-07-09T01:20:51.951Z,17.3
2018-07-09T01:25:52.114Z,17.3
2018-07-09T01:30:52.028Z,17.2
2018-07-09T01:35:52.087Z,17.2
2018-07-09T01:40:55.821Z,17.2
2018-07-09T01:45:55.496Z,17.1
2018-07-09T01:50:55.775Z,17
2018-07-09T01:55:55.572Z,17
2018-07-09T02:00:55.735Z,17
2018-07-09T02:05:55.775Z,16.9
2018-07-09T02:10:55.729Z,16.9
2018-07-09T02:15:56.386Z,16.8
2018-07-09T02:20:56.296Z,16.8
2018-07-09T02:26:09.111Z,16.8
2018-07-09T02:31:09.304Z,16.8
2018-07-09T02:36:08.843Z,16.7
2018-07-09T02:41:08.845Z,16.7
2018-07-09T02:46:09.056Z,16.8
2018-07-09T02:51:08.973Z,16.8
2018-07-09T02:56:08.836Z,16.7
2018-07-09T03:01:10.939Z,16.7
2018-07-09T03:06:10.522Z,16.7
2018-07-09T03:11:23.361Z,16.7
2018-07-09T03:16:23.306Z,16.6
2018-07-09T03:21:23.335Z,16.7
2018-07-09T03:26:23.103Z,16.7
2018-07-09T03:31:23.047Z,16.6
2018-07-09T03:36:23.216Z,16.6
2018-07-09T03:41:23.081Z,16.7
2018-07-09T03:46:23.912Z,16.8
2018-07-09T03:51:23.847Z,16.7
2018-07-09T03:56:35.988Z,16.7
2018-07-09T04:01:35.909Z,16.9
2018-07-09T04:06:35.923Z,17.1
2018-07-09T04:11:38.537Z,17.2
2018-07-09T04:16:35.893Z,17.2
2018-07-09T04:21:35.926Z,17.2
2018-07-09T04:26:35.729Z,17.1
2018-07-09T04:31:36.818Z,16.9
2018-07-09T04:36:36.742Z,17.1
2018-07-09T04:41:49.175Z,17.1
2018-07-09T04:46:49.078Z,17.2
2018-07-09T04:51:49.154Z,17.3
2018-07-09T04:56:49.109Z,17.5
2018-07-09T05:01:49.102Z,17.9
2018-07-09T05:06:49.132Z,18.4
2018-07-09T05:11:49.061Z,19
2018-07-09T05:16:49.836Z,19.5
2018-07-09T05:21:49.546Z,19.7
2018-07-09T05:27:01.995Z,20.1
2018-07-09T05:32:01.917Z,20.4
2018-07-09T05:37:01.938Z,20.7
2018-07-09T05:42:01.975Z,21.2
2018-07-09T05:47:01.919Z,21.6
2018-07-09T05:52:02.330Z,21.9
2018-07-09T05:57:02.199Z,22.3
2018-07-09T06:02:02.092Z,22.5
2018-07-09T06:07:02.036Z,22.7
2018-07-09T06:12:02.278Z,23
2018-07-09T06:17:02.200Z,23
2018-07-09T06:22:02.076Z,23.3
2018-07-09T06:27:02.917Z,23.6
2018-07-09T06:32:02.807Z,23.7
2018-07-09T06:37:15.123Z,23.5
2018-07-09T06:42:15.074Z,23.9
2018-07-09T06:47:14.868Z,23.8
2018-07-09T06:52:15.034Z,24
2018-07-09T06:57:25.113Z,23.9
2018-07-09T07:02:24.913Z,24.4
2018-07-09T07:07:25.085Z,24.6
2018-07-09T07:12:24.828Z,24.7
2018-07-09T07:17:24.865Z,25.1
2018-07-09T07:22:25.672Z,25.2
2018-07-09T07:27:26.511Z,24.9
2018-07-09T07:32:27.011Z,25
2018-07-09T07:37:26.833Z,24.9
2018-07-09T07:42:39.520Z,25.3
2018-07-09T07:47:40.498Z,25.1
2018-07-09T07:52:39.281Z,25.5
2018-07-09T07:57:39.427Z,25.9
2018-07-09T08:02:39.486Z,26.1
2018-07-09T08:07:39.299Z,25.8
2018-07-09T08:17:40.066Z,26.3
2018-07-09T08:22:39.922Z,26.5
2018-07-09T08:27:52.790Z,26.6
2018-07-09T08:32:52.512Z,27.1
2018-07-09T08:37:52.768Z,27.2
2018-07-09T08:42:52.514Z,26.4
2018-07-09T08:47:52.668Z,26.7
2018-07-09T08:52:52.523Z,27.1
2018-07-09T08:57:52.628Z,27.1
2018-07-09T09:02:52.497Z,25.9
2018-07-09T09:07:52.511Z,26.3
2018-07-09T09:12:52.747Z,26
2018-07-09T09:17:52.668Z,26.4
2018-07-09T09:22:52.714Z,26.6
2018-07-09T09:27:53.120Z,27.2
2018-07-09T09:32:52.975Z,27.5
2018-07-09T09:38:05.812Z,27.5
2018-07-09T09:43:05.602Z,27.2
2018-07-09T09:48:05.652Z,27.5
2018-07-09T09:53:05.652Z,27.8
2018-07-09T09:58:05.755Z,27.8
2018-07-09T10:03:05.543Z,27.4
2018-07-09T10:08:05.560Z,27.4
2018-07-09T10:13:09.768Z,27.3
2018-07-09T10:18:09.674Z,27.8
2018-07-09T10:23:22.539Z,27.9
2018-07-09T10:28:22.339Z,27
2018-07-09T10:33:22.261Z,26.9
2018-07-09T10:38:22.319Z,26.5
2018-07-09T10:43:22.341Z,26.9
2018-07-09T10:48:22.376Z,27.2
2018-07-09T10:53:22.296Z,27.2
2018-07-09T10:58:22.661Z,27.6
2018-07-09T11:03:22.455Z,27.4
2018-07-09T11:08:37.887Z,26.5
2018-07-09T11:13:37.777Z,26.4
2018-07-09T11:18:37.846Z,25.9
2018-07-09T11:23:37.616Z,26.5
2018-07-09T11:28:37.809Z,27.3
2018-07-09T11:33:37.706Z,27.5
2018-07-09T11:38:37.759Z,28.3
2018-07-09T11:43:37.916Z,27.7
2018-07-09T11:48:37.656Z,27.5
2018-07-09T11:53:50.464Z,27.9
2018-07-09T11:58:50.211Z,27.5
2018-07-09T12:03:50.205Z,26.7
2018-07-09T12:08:50.189Z,27
2018-07-09T12:13:50.412Z,26.5
2018-07-09T12:18:50.195Z,26.3
2018-07-09T12:23:50.210Z,26.3
2018-07-09T12:28:52.020Z,25.7
2018-07-09T12:33:51.663Z,25.7
2018-07-09T12:39:04.179Z,25.6
2018-07-09T12:44:03.909Z,25.9
2018-07-09T12:49:04.043Z,25.6
2018-07-09T12:54:04.092Z,26.3
2018-07-09T12:59:03.901Z,27.1
2018-07-09T13:04:03.912Z,27.1
2018-07-09T13:09:04.091Z,27.7
2018-07-09T13:14:04.026Z,28
2018-07-09T13:19:04.060Z,28
2018-07-09T13:24:04.079Z,28.4
2018-07-09T13:29:03.929Z,28.6
2018-07-09T13:34:03.897Z,28.3
2018-07-09T13:39:04.607Z,28.2
2018-07-09T13:44:04.450Z,27.6
2018-07-09T13:49:17.356Z,27.9
2018-07-09T13:54:17.306Z,28
2018-07-09T13:59:17.217Z,28
2018-07-09T14:04:17.319Z,28
2018-07-09T14:09:17.305Z,28.6
2018-07-09T14:14:17.230Z,28.5
2018-07-09T14:19:17.124Z,28.9
2018-07-09T14:24:18.894Z,28.5
2018-07-09T14:29:18.630Z,28.1
2018-07-09T14:34:31.644Z,28.2
2018-07-09T14:39:31.533Z,28.1
2018-07-09T14:44:31.376Z,28.3
2018-07-09T14:49:31.495Z,27.8
2018-07-09T14:54:31.542Z,28.2
2018-07-09T14:59:31.372Z,28.2
2018-07-09T15:04:31.481Z,28.2
2018-07-09T15:09:31.573Z,28.4
2018-07-09T15:14:31.588Z,27.7
2018-07-09T15:19:31.612Z,27.5
2018-07-09T15:24:31.646Z,27.6
2018-07-09T15:29:31.704Z,27.6
2018-07-09T15:34:32.378Z,27.6
2018-07-09T15:39:32.096Z,27.7
2018-07-09T15:44:45.529Z,27.7
2018-07-09T15:49:45.222Z,27.4
2018-07-09T15:54:45.469Z,27.1
2018-07-09T15:59:45.377Z,27
2018-07-09T16:04:45.434Z,26.8
2018-07-09T16:09:45.259Z,26.6
2018-07-09T16:14:45.387Z,26.4
2018-07-09T16:19:48.052Z,26.4
2018-07-09T16:24:47.943Z,26.4
2018-07-09T16:29:58.419Z,26.2
2018-07-09T16:34:58.188Z,25.9
2018-07-09T16:39:58.464Z,25.8
2018-07-09T16:44:58.153Z,26
2018-07-09T16:49:58.161Z,25.8
2018-07-09T16:54:58.349Z,25.9
2018-07-09T16:59:58.282Z,25.8
2018-07-09T17:04:58.953Z,25.8
2018-07-09T17:09:58.884Z,25.7
2018-07-09T17:15:11.632Z,25.7
2018-07-09T17:20:11.320Z,25.6
2018-07-09T17:25:11.335Z,25.6
2018-07-09T17:30:11.350Z,25.5
2018-07-09T17:35:11.352Z,25.3
2018-07-09T17:40:11.332Z,25.3
2018-07-09T17:45:11.362Z,25.3
2018-07-09T17:50:11.604Z,25.3
2018-07-09T17:55:11.529Z,25.2
2018-07-09T18:00:23.608Z,25.2
2018-07-09T18:05:23.319Z,25.1
2018-07-09T18:10:23.429Z,24.8
2018-07-09T18:15:23.350Z,24.9
2018-07-09T18:20:23.615Z,24.7
2018-07-09T18:25:23.490Z,24.6
2018-07-09T18:30:23.508Z,24.4
2018-07-09T18:35:25.431Z,24.4
2018-07-09T18:40:25.197Z,24.3
2018-07-09T18:45:36.723Z,24.2
2018-07-09T18:50:36.440Z,24.1
2018-07-09T18:55:36.419Z,24.1
2018-07-09T19:00:36.600Z,23.8
2018-07-09T19:05:36.444Z,23.7
2018-07-09T19:10:36.455Z,23.4
2018-07-09T19:15:37.597Z,23.3
2018-07-09T19:20:38.155Z,23.1
2018-07-09T19:25:49.230Z,22.9
2018-07-09T19:30:52.044Z,22.9
2018-07-09T19:35:50.788Z,22.7
2018-07-09T19:40:50.721Z,22.6
2018-07-09T19:45:50.916Z,22.4
2018-07-09T19:50:50.717Z,22.3
2018-07-09T19:55:50.751Z,22.3
2018-07-09T20:00:50.770Z,22.2
2018-07-09T20:05:50.790Z,22.1
2018-07-09T20:10:50.717Z,21.8
2018-07-09T20:15:50.712Z,21.7
2018-07-09T20:20:50.925Z,21.8
2018-07-09T20:25:51.058Z,21.7
2018-07-09T20:30:52.438Z,21.6
2018-07-09T20:35:53.001Z,21.6
2018-07-09T20:41:06.698Z,21.5
2018-07-09T20:46:06.597Z,21.3
2018-07-09T20:51:06.404Z,21.2
2018-07-09T20:56:06.127Z,21.2
2018-07-09T21:01:06.706Z,21.2
2018-07-09T21:06:06.049Z,21
2018-07-09T21:11:06.043Z,21
2018-07-09T21:16:11.300Z,21
2018-07-09T21:21:11.026Z,20.9
2018-07-09T21:26:23.534Z,21
2018-07-09T21:31:23.381Z,21
2018-07-09T21:36:23.401Z,21
2018-07-09T21:41:23.495Z,20.8
2018-07-09T21:46:23.526Z,20.8
2018-07-09T21:51:25.117Z,20.7
2018-07-09T21:56:25.172Z,20.7
2018-07-09T22:01:25.034Z,20.6
2018-07-09T22:06:25.061Z,20.5
2018-07-09T22:11:24.883Z,20.4
2018-07-09T22:16:24.879Z,20.6
2018-07-09T22:21:25.075Z,20.5
2018-07-09T22:26:29.413Z,20.5
2018-07-09T22:31:29.116Z,20.5
2018-07-09T22:36:39.899Z,20.4
2018-07-09T22:41:39.639Z,20.4
2018-07-09T22:46:39.763Z,20.4
2018-07-09T22:51:39.629Z,20.4
2018-07-09T22:56:39.830Z,20.4
2018-07-09T23:01:39.646Z,20.5
2018-07-09T23:06:39.799Z,20.4
2018-07-09T23:11:42.517Z,20.4
2018-07-09T23:16:42.636Z,20.4
2018-07-09T23:21:52.900Z,20.3
2018-07-09T23:26:52.636Z,20.3
2018-07-09T23:31:52.760Z,20.3
2018-07-09T23:36:52.807Z,20.3
2018-07-09T23:41:52.839Z,20.3
2018-07-09T23:46:52.761Z,20.2
2018-07-09T23:51:52.795Z,20.1
2018-07-09T23:56:55.539Z,20.1
